sensor_id;sensor_type;location;lat;lon;timestamp;temperature;humidity
49413;DHT22;35493;50.276;9.372;2023-03-01T00:00:03;0.10;75.50
49413;DHT22;35493;50.276;9.372;2023-03-01T00:02:37;0.10;75.70
49413;DHT22;35493;50.276;9.372;2023-03-01T00:05:05;0.10;75.70
49413;DHT22;35493;50.276;9.372;2023-03-01T00:07:34;0.10;75.70
49413;DHT22;35493;50.276;9.372;2023-03-01T00:10:03;0.10;75.70
49413;DHT22;35493;50.276;9.372;2023-03-01T00:12:36;0.10;75.60
49413;DHT22;35493;50.276;9.372;2023-03-01T00:15:03;0.10;75.60
49413;DHT22;35493;50.276;9.372;2023-03-01T00:17:31;0.10;75.60
49413;DHT22;35493;50.276;9.372;2023-03-01T00:19:58;0.10;75.70
49413;DHT22;35493;50.276;9.372;2023-03-01T00:22:26;0.00;76.00
49413;DHT22;35493;50.276;9.372;2023-03-01T00:24:54;0.00;76.00
49413;DHT22;35493;50.276;9.372;2023-03-01T00:27:23;0.00;76.00
49413;DHT22;35493;50.276;9.372;2023-03-01T00:29:49;0.00;76.00
49413;DHT22;35493;50.276;9.372;2023-03-01T00:32:16;0.10;75.80
49413;DHT22;35493;50.276;9.372;2023-03-01T00:34:43;0.10;75.90
49413;DHT22;35493;50.276;9.372;2023-03-01T00:37:19;0.00;76.00
49413;DHT22;35493;50.276;9.372;2023-03-01T00:39:47;0.10;76.00
49413;DHT22;35493;50.276;9.372;2023-03-01T00:42:15;0.00;76.00
49413;DHT22;35493;50.276;9.372;2023-03-01T00:44:43;0.00;76.10
49413;DHT22;35493;50.276;9.372;2023-03-01T00:47:10;0.00;76.20
49413;DHT22;35493;50.276;9.372;2023-03-01T00:49:37;0.00;76.20
49413;DHT22;35493;50.276;9.372;2023-03-01T00:52:04;0.00;76.30
49413;DHT22;35493;50.276;9.372;2023-03-01T00:54:31;0.00;76.30
49413;DHT22;35493;50.276;9.372;2023-03-01T00:56:58;0.00;76.30
49413;DHT22;35493;50.276;9.372;2023-03-01T00:59:25;0.00;76.30
49413;DHT22;35493;50.276;9.372;2023-03-01T01:01:53;0.00;76.50
49413;DHT22;35493;50.276;9.372;2023-03-01T01:04:21;0.00;76.60
49413;DHT22;35493;50.276;9.372;2023-03-01T01:06:48;0.00;76.50
49413;DHT22;35493;50.276;9.372;2023-03-01T01:09:17;0.00;76.60
49413;DHT22;35493;50.276;9.372;2023-03-01T01:11:44;0.00;76.70
49413;DHT22;35493;50.276;9.372;2023-03-01T01:14:13;0.00;76.70
49413;DHT22;35493;50.276;9.372;2023-03-01T01:16:40;0.00;77.00
49413;DHT22;35493;50.276;9.372;2023-03-01T01:19:09;0.00;77.20
49413;DHT22;35493;50.276;9.372;2023-03-01T01:21:37;0.00;77.10
49413;DHT22;35493;50.276;9.372;2023-03-01T01:24:04;0.00;77.10
49413;DHT22;35493;50.276;9.372;2023-03-01T01:26:33;0.00;77.00
49413;DHT22;35493;50.276;9.372;2023-03-01T01:29:01;0.00;77.00
49413;DHT22;35493;50.276;9.372;2023-03-01T01:31:29;0.00;76.90
49413;DHT22;35493;50.276;9.372;2023-03-01T01:33:57;0.00;76.80
49413;DHT22;35493;50.276;9.372;2023-03-01T01:36:26;0.00;76.70
49413;DHT22;35493;50.276;9.372;2023-03-01T01:38:53;0.00;76.80
49413;DHT22;35493;50.276;9.372;2023-03-01T01:41:21;0.00;76.90
49413;DHT22;35493;50.276;9.372;2023-03-01T01:44:08;0.00;77.10
49413;DHT22;35493;50.276;9.372;2023-03-01T01:46:37;0.00;77.10
49413;DHT22;35493;50.276;9.372;2023-03-01T01:49:15;0.00;77.10
49413;DHT22;35493;50.276;9.372;2023-03-01T01:51:47;0.00;77.10
49413;DHT22;35493;50.276;9.372;2023-03-01T01:54:20;0.00;77.10
49413;DHT22;35493;50.276;9.372;2023-03-01T01:56:50;0.00;77.20
49413;DHT22;35493;50.276;9.372;2023-03-01T01:59:19;0.00;77.30
49413;DHT22;35493;50.276;9.372;2023-03-01T02:01:50;0.00;77.30
49413;DHT22;35493;50.276;9.372;2023-03-01T02:04:17;0.00;77.40
49413;DHT22;35493;50.276;9.372;2023-03-01T02:06:48;0.00;77.40
49413;DHT22;35493;50.276;9.372;2023-03-01T02:09:19;0.00;77.50
49413;DHT22;35493;50.276;9.372;2023-03-01T02:11:48;0.00;77.40
49413;DHT22;35493;50.276;9.372;2023-03-01T02:14:16;0.00;77.50
49413;DHT22;35493;50.276;9.372;2023-03-01T02:16:44;0.00;77.50
49413;DHT22;35493;50.276;9.372;2023-03-01T02:19:23;0.00;77.50
49413;DHT22;35493;50.276;9.372;2023-03-01T02:22:00;0.00;77.40
49413;DHT22;35493;50.276;9.372;2023-03-01T02:24:34;0.00;77.40
49413;DHT22;35493;50.276;9.372;2023-03-01T02:27:03;0.00;77.40
49413;DHT22;35493;50.276;9.372;2023-03-01T02:29:31;0.00;77.60
49413;DHT22;35493;50.276;9.372;2023-03-01T02:32:00;0.00;77.60
49413;DHT22;35493;50.276;9.372;2023-03-01T02:34:28;0.00;77.60
49413;DHT22;35493;50.276;9.372;2023-03-01T02:36:59;0.00;77.70
49413;DHT22;35493;50.276;9.372;2023-03-01T02:39:31;-3276.70;78.40
49413;DHT22;35493;50.276;9.372;2023-03-01T02:41:59;-3276.70;79.10
49413;DHT22;35493;50.276;9.372;2023-03-01T02:44:28;-3276.60;79.50
49413;DHT22;35493;50.276;9.372;2023-03-01T02:46:57;-3276.60;79.50
49413;DHT22;35493;50.276;9.372;2023-03-01T02:49:29;-3276.60;79.50
49413;DHT22;35493;50.276;9.372;2023-03-01T02:52:13;-3276.60;79.60
49413;DHT22;35493;50.276;9.372;2023-03-01T02:54:46;-3276.60;79.80
49413;DHT22;35493;50.276;9.372;2023-03-01T02:57:16;-3276.60;79.70
49413;DHT22;35493;50.276;9.372;2023-03-01T02:59:43;-3276.70;79.60
49413;DHT22;35493;50.276;9.372;2023-03-01T03:02:22;-3276.70;79.90
49413;DHT22;35493;50.276;9.372;2023-03-01T03:05:07;-3276.70;79.90
49413;DHT22;35493;50.276;9.372;2023-03-01T03:07:36;-3276.70;79.80
49413;DHT22;35493;50.276;9.372;2023-03-01T03:10:06;-3276.70;79.70
49413;DHT22;35493;50.276;9.372;2023-03-01T03:12:34;-3276.60;79.70
49413;DHT22;35493;50.276;9.372;2023-03-01T03:15:01;-3276.60;79.90
49413;DHT22;35493;50.276;9.372;2023-03-01T03:17:36;-3276.60;79.90
49413;DHT22;35493;50.276;9.372;2023-03-01T03:20:03;-3276.60;80.00
49413;DHT22;35493;50.276;9.372;2023-03-01T03:22:30;-3276.60;79.80
49413;DHT22;35493;50.276;9.372;2023-03-01T03:24:59;-3276.60;80.00
49413;DHT22;35493;50.276;9.372;2023-03-01T03:27:27;-3276.60;80.10
49413;DHT22;35493;50.276;9.372;2023-03-01T03:29:54;-3276.60;80.00
49413;DHT22;35493;50.276;9.372;2023-03-01T03:32:21;-3276.70;79.90
49413;DHT22;35493;50.276;9.372;2023-03-01T03:34:50;-3276.60;79.90
49413;DHT22;35493;50.276;9.372;2023-03-01T03:37:16;-3276.60;80.10
49413;DHT22;35493;50.276;9.372;2023-03-01T03:39:58;-3276.60;80.20
49413;DHT22;35493;50.276;9.372;2023-03-01T03:42:25;-3276.60;80.00
49413;DHT22;35493;50.276;9.372;2023-03-01T03:44:52;-3276.60;80.00
49413;DHT22;35493;50.276;9.372;2023-03-01T03:47:19;-3276.60;80.20
49413;DHT22;35493;50.276;9.372;2023-03-01T03:49:46;-3276.60;80.10
49413;DHT22;35493;50.276;9.372;2023-03-01T03:52:14;-3276.60;79.80
49413;DHT22;35493;50.276;9.372;2023-03-01T03:54:42;-3276.60;80.00
49413;DHT22;35493;50.276;9.372;2023-03-01T03:57:09;-3276.60;80.10
49413;DHT22;35493;50.276;9.372;2023-03-01T03:59:36;-3276.60;80.00
49413;DHT22;35493;50.276;9.372;2023-03-01T04:02:03;-3276.60;80.10
49413;DHT22;35493;50.276;9.372;2023-03-01T04:04:31;-3276.60;79.90
49413;DHT22;35493;50.276;9.372;2023-03-01T04:06:58;-3276.70;79.70
49413;DHT22;35493;50.276;9.372;2023-03-01T04:09:26;0.00;79.20
49413;DHT22;35493;50.276;9.372;2023-03-01T04:11:55;0.00;78.80
49413;DHT22;35493;50.276;9.372;2023-03-01T04:14:22;0.00;78.30
49413;DHT22;35493;50.276;9.372;2023-03-01T04:16:49;0.00;78.10
49413;DHT22;35493;50.276;9.372;2023-03-01T04:19:16;0.00;78.00
49413;DHT22;35493;50.276;9.372;2023-03-01T04:21:43;0.00;77.90
49413;DHT22;35493;50.276;9.372;2023-03-01T04:24:10;0.00;77.80
49413;DHT22;35493;50.276;9.372;2023-03-01T04:26:39;0.00;77.70
49413;DHT22;35493;50.276;9.372;2023-03-01T04:29:06;0.00;77.70
49413;DHT22;35493;50.276;9.372;2023-03-01T04:31:33;0.00;77.80
49413;DHT22;35493;50.276;9.372;2023-03-01T04:34:00;0.00;77.80
49413;DHT22;35493;50.276;9.372;2023-03-01T04:36:28;0.10;77.70
49413;DHT22;35493;50.276;9.372;2023-03-01T04:38:55;0.10;77.40
49413;DHT22;35493;50.276;9.372;2023-03-01T04:41:24;0.10;77.40
49413;DHT22;35493;50.276;9.372;2023-03-01T04:43:52;0.20;77.20
49413;DHT22;35493;50.276;9.372;2023-03-01T04:46:20;0.20;77.30
49413;DHT22;35493;50.276;9.372;2023-03-01T04:48:48;0.10;77.40
49413;DHT22;35493;50.276;9.372;2023-03-01T04:51:15;0.10;77.40
49413;DHT22;35493;50.276;9.372;2023-03-01T04:53:43;0.20;77.30
49413;DHT22;35493;50.276;9.372;2023-03-01T04:56:10;0.20;77.40
49413;DHT22;35493;50.276;9.372;2023-03-01T04:58:39;0.20;77.30
49413;DHT22;35493;50.276;9.372;2023-03-01T05:01:10;0.20;77.20
49413;DHT22;35493;50.276;9.372;2023-03-01T05:03:41;0.20;77.00
49413;DHT22;35493;50.276;9.372;2023-03-01T05:06:09;0.20;76.90
49413;DHT22;35493;50.276;9.372;2023-03-01T05:08:36;0.20;76.90
49413;DHT22;35493;50.276;9.372;2023-03-01T05:11:04;0.20;77.00
49413;DHT22;35493;50.276;9.372;2023-03-01T05:13:31;0.20;77.00
49413;DHT22;35493;50.276;9.372;2023-03-01T05:16:00;0.20;77.10
49413;DHT22;35493;50.276;9.372;2023-03-01T05:18:33;0.20;76.90
49413;DHT22;35493;50.276;9.372;2023-03-01T05:21:03;0.20;77.00
49413;DHT22;35493;50.276;9.372;2023-03-01T05:23:31;0.20;76.90
49413;DHT22;35493;50.276;9.372;2023-03-01T05:25:58;0.20;76.90
49413;DHT22;35493;50.276;9.372;2023-03-01T05:28:26;0.20;76.90
49413;DHT22;35493;50.276;9.372;2023-03-01T05:30:53;0.20;76.80
49413;DHT22;35493;50.276;9.372;2023-03-01T05:33:20;0.20;76.90
49413;DHT22;35493;50.276;9.372;2023-03-01T05:35:50;0.20;77.00
49413;DHT22;35493;50.276;9.372;2023-03-01T05:38:19;0.20;77.00
49413;DHT22;35493;50.276;9.372;2023-03-01T05:40:47;0.30;77.00
49413;DHT22;35493;50.276;9.372;2023-03-01T05:43:16;0.30;76.90
49413;DHT22;35493;50.276;9.372;2023-03-01T05:45:44;0.30;76.80
49413;DHT22;35493;50.276;9.372;2023-03-01T05:48:11;0.30;76.50
49413;DHT22;35493;50.276;9.372;2023-03-01T05:50:40;0.30;76.60
49413;DHT22;35493;50.276;9.372;2023-03-01T05:53:11;0.30;76.70
49413;DHT22;35493;50.276;9.372;2023-03-01T05:55:38;0.30;76.40
49413;DHT22;35493;50.276;9.372;2023-03-01T05:58:06;0.30;76.40
49413;DHT22;35493;50.276;9.372;2023-03-01T06:00:34;0.40;76.40
49413;DHT22;35493;50.276;9.372;2023-03-01T06:03:01;0.30;76.20
49413;DHT22;35493;50.276;9.372;2023-03-01T06:05:28;0.40;76.30
49413;DHT22;35493;50.276;9.372;2023-03-01T06:07:58;0.30;76.30
49413;DHT22;35493;50.276;9.372;2023-03-01T06:10:30;0.40;76.20
49413;DHT22;35493;50.276;9.372;2023-03-01T06:12:58;0.30;76.40
49413;DHT22;35493;50.276;9.372;2023-03-01T06:15:25;0.40;76.30
49413;DHT22;35493;50.276;9.372;2023-03-01T06:17:54;0.40;76.20
49413;DHT22;35493;50.276;9.372;2023-03-01T06:20:24;0.40;76.10
49413;DHT22;35493;50.276;9.372;2023-03-01T06:22:52;0.40;76.20
49413;DHT22;35493;50.276;9.372;2023-03-01T06:25:22;0.40;76.20
49413;DHT22;35493;50.276;9.372;2023-03-01T06:27:50;0.40;76.10
49413;DHT22;35493;50.276;9.372;2023-03-01T06:30:19;0.40;76.10
49413;DHT22;35493;50.276;9.372;2023-03-01T06:32:47;0.40;76.20
49413;DHT22;35493;50.276;9.372;2023-03-01T06:35:15;0.40;75.90
49413;DHT22;35493;50.276;9.372;2023-03-01T06:37:44;0.50;75.80
49413;DHT22;35493;50.276;9.372;2023-03-01T06:40:11;0.50;75.70
49413;DHT22;35493;50.276;9.372;2023-03-01T06:42:42;0.40;75.90
49413;DHT22;35493;50.276;9.372;2023-03-01T06:45:10;0.40;76.00
49413;DHT22;35493;50.276;9.372;2023-03-01T06:47:37;0.50;76.10
49413;DHT22;35493;50.276;9.372;2023-03-01T06:50:05;0.40;76.00
49413;DHT22;35493;50.276;9.372;2023-03-01T06:52:36;0.30;76.00
49413;DHT22;35493;50.276;9.372;2023-03-01T06:55:04;0.40;76.00
49413;DHT22;35493;50.276;9.372;2023-03-01T06:57:31;0.40;76.00
49413;DHT22;35493;50.276;9.372;2023-03-01T06:59:58;0.40;76.00
49413;DHT22;35493;50.276;9.372;2023-03-01T07:02:26;0.40;75.90
49413;DHT22;35493;50.276;9.372;2023-03-01T07:04:53;0.50;75.80
49413;DHT22;35493;50.276;9.372;2023-03-01T07:07:20;0.50;75.80
49413;DHT22;35493;50.276;9.372;2023-03-01T07:09:48;0.50;75.80
49413;DHT22;35493;50.276;9.372;2023-03-01T07:12:18;0.50;75.80
49413;DHT22;35493;50.276;9.372;2023-03-01T07:14:47;0.50;75.80
49413;DHT22;35493;50.276;9.372;2023-03-01T07:17:14;0.50;75.50
49413;DHT22;35493;50.276;9.372;2023-03-01T07:19:43;0.50;75.50
49413;DHT22;35493;50.276;9.372;2023-03-01T07:22:10;0.60;75.40
49413;DHT22;35493;50.276;9.372;2023-03-01T07:24:37;0.60;75.30
49413;DHT22;35493;50.276;9.372;2023-03-01T07:27:04;0.60;75.30
49413;DHT22;35493;50.276;9.372;2023-03-01T07:29:31;0.60;75.10
49413;DHT22;35493;50.276;9.372;2023-03-01T07:31:58;0.70;74.90
49413;DHT22;35493;50.276;9.372;2023-03-01T07:34:25;0.70;74.70
49413;DHT22;35493;50.276;9.372;2023-03-01T07:36:53;0.80;74.70
49413;DHT22;35493;50.276;9.372;2023-03-01T07:39:21;0.80;74.60
49413;DHT22;35493;50.276;9.372;2023-03-01T07:41:50;0.80;74.40
49413;DHT22;35493;50.276;9.372;2023-03-01T07:44:21;0.80;74.30
49413;DHT22;35493;50.276;9.372;2023-03-01T07:46:48;0.80;74.20
49413;DHT22;35493;50.276;9.372;2023-03-01T07:49:15;0.80;74.20
49413;DHT22;35493;50.276;9.372;2023-03-01T07:51:43;0.90;74.10
49413;DHT22;35493;50.276;9.372;2023-03-01T07:54:11;0.90;74.00
49413;DHT22;35493;50.276;9.372;2023-03-01T07:56:38;0.90;73.90
49413;DHT22;35493;50.276;9.372;2023-03-01T07:59:06;0.80;74.10
49413;DHT22;35493;50.276;9.372;2023-03-01T08:01:33;0.90;73.90
49413;DHT22;35493;50.276;9.372;2023-03-01T08:04:00;0.80;73.80
49413;DHT22;35493;50.276;9.372;2023-03-01T08:06:28;0.90;73.80
49413;DHT22;35493;50.276;9.372;2023-03-01T08:08:55;0.90;73.80
49413;DHT22;35493;50.276;9.372;2023-03-01T08:11:25;1.00;73.80
49413;DHT22;35493;50.276;9.372;2023-03-01T08:13:53;1.00;73.80
49413;DHT22;35493;50.276;9.372;2023-03-01T08:16:21;1.00;73.80
49413;DHT22;35493;50.276;9.372;2023-03-01T08:18:47;1.00;73.70
49413;DHT22;35493;50.276;9.372;2023-03-01T08:21:17;1.10;73.60
49413;DHT22;35493;50.276;9.372;2023-03-01T08:23:44;1.20;73.70
49413;DHT22;35493;50.276;9.372;2023-03-01T08:26:12;1.20;73.60
49413;DHT22;35493;50.276;9.372;2023-03-01T08:28:44;1.20;73.50
49413;DHT22;35493;50.276;9.372;2023-03-01T08:31:17;1.20;73.50
49413;DHT22;35493;50.276;9.372;2023-03-01T08:33:45;1.20;73.50
49413;DHT22;35493;50.276;9.372;2023-03-01T08:36:16;1.30;73.40
49413;DHT22;35493;50.276;9.372;2023-03-01T08:38:43;1.40;73.20
49413;DHT22;35493;50.276;9.372;2023-03-01T08:41:12;1.50;72.80
49413;DHT22;35493;50.276;9.372;2023-03-01T08:43:40;1.60;72.80
49413;DHT22;35493;50.276;9.372;2023-03-01T08:46:08;1.60;72.80
49413;DHT22;35493;50.276;9.372;2023-03-01T08:48:35;1.70;72.30
49413;DHT22;35493;50.276;9.372;2023-03-01T08:51:10;1.80;71.90
49413;DHT22;35493;50.276;9.372;2023-03-01T08:53:38;1.80;71.70
49413;DHT22;35493;50.276;9.372;2023-03-01T08:56:05;1.90;71.40
49413;DHT22;35493;50.276;9.372;2023-03-01T08:58:32;2.00;71.20
49413;DHT22;35493;50.276;9.372;2023-03-01T09:01:04;2.20;70.80
49413;DHT22;35493;50.276;9.372;2023-03-01T09:03:34;2.20;70.50
49413;DHT22;35493;50.276;9.372;2023-03-01T09:06:01;2.40;70.20
49413;DHT22;35493;50.276;9.372;2023-03-01T09:08:29;2.40;69.70
49413;DHT22;35493;50.276;9.372;2023-03-01T09:10:56;2.50;69.40
49413;DHT22;35493;50.276;9.372;2023-03-01T09:13:23;2.60;68.60
49413;DHT22;35493;50.276;9.372;2023-03-01T09:15:50;2.70;68.30
49413;DHT22;35493;50.276;9.372;2023-03-01T09:18:17;2.70;68.10
49413;DHT22;35493;50.276;9.372;2023-03-01T09:20:45;2.80;67.70
49413;DHT22;35493;50.276;9.372;2023-03-01T09:23:12;3.00;67.40
49413;DHT22;35493;50.276;9.372;2023-03-01T09:25:39;3.00;67.50
49413;DHT22;35493;50.276;9.372;2023-03-01T09:28:06;3.00;67.10
49413;DHT22;35493;50.276;9.372;2023-03-01T09:30:33;3.10;67.20
49413;DHT22;35493;50.276;9.372;2023-03-01T09:33:00;3.20;67.10
49413;DHT22;35493;50.276;9.372;2023-03-01T09:35:28;3.30;66.90
49413;DHT22;35493;50.276;9.372;2023-03-01T09:37:56;3.40;66.10
49413;DHT22;35493;50.276;9.372;2023-03-01T09:40:26;3.50;65.80
49413;DHT22;35493;50.276;9.372;2023-03-01T09:42:59;3.60;65.80
49413;DHT22;35493;50.276;9.372;2023-03-01T09:45:32;3.60;65.50
49413;DHT22;35493;50.276;9.372;2023-03-01T09:48:00;3.70;65.10
49413;DHT22;35493;50.276;9.372;2023-03-01T09:50:32;3.80;64.80
49413;DHT22;35493;50.276;9.372;2023-03-01T09:53:03;3.90;64.60
49413;DHT22;35493;50.276;9.372;2023-03-01T09:55:37;4.00;64.40
49413;DHT22;35493;50.276;9.372;2023-03-01T09:58:24;4.10;64.40
49413;DHT22;35493;50.276;9.372;2023-03-01T10:00:54;4.20;64.20
49413;DHT22;35493;50.276;9.372;2023-03-01T10:03:26;4.20;63.70
49413;DHT22;35493;50.276;9.372;2023-03-01T10:05:59;4.30;63.20
49413;DHT22;35493;50.276;9.372;2023-03-01T10:08:40;4.50;63.10
49413;DHT22;35493;50.276;9.372;2023-03-01T10:11:20;4.60;62.60
49413;DHT22;35493;50.276;9.372;2023-03-01T10:13:54;4.70;62.10
49413;DHT22;35493;50.276;9.372;2023-03-01T10:16:26;4.80;61.70
49413;DHT22;35493;50.276;9.372;2023-03-01T10:18:58;4.90;61.50
49413;DHT22;35493;50.276;9.372;2023-03-01T10:21:31;4.90;60.90
49413;DHT22;35493;50.276;9.372;2023-03-01T10:24:10;5.00;61.10
49413;DHT22;35493;50.276;9.372;2023-03-01T10:26:48;5.10;61.20
49413;DHT22;35493;50.276;9.372;2023-03-01T10:29:19;5.20;60.30
49413;DHT22;35493;50.276;9.372;2023-03-01T10:31:51;5.20;60.20
49413;DHT22;35493;50.276;9.372;2023-03-01T10:34:20;5.20;60.40
49413;DHT22;35493;50.276;9.372;2023-03-01T10:36:50;5.40;60.50
49413;DHT22;35493;50.276;9.372;2023-03-01T10:39:20;5.40;59.70
49413;DHT22;35493;50.276;9.372;2023-03-01T10:41:59;5.50;59.80
49413;DHT22;35493;50.276;9.372;2023-03-01T10:44:40;5.60;59.30
49413;DHT22;35493;50.276;9.372;2023-03-01T10:47:21;5.70;59.50
49413;DHT22;35493;50.276;9.372;2023-03-01T10:50:00;5.70;58.80
49413;DHT22;35493;50.276;9.372;2023-03-01T10:52:33;5.80;58.30
49413;DHT22;35493;50.276;9.372;2023-03-01T10:55:04;5.90;57.80
49413;DHT22;35493;50.276;9.372;2023-03-01T10:57:44;6.00;57.90
49413;DHT22;35493;50.276;9.372;2023-03-01T11:00:29;6.10;57.20
49413;DHT22;35493;50.276;9.372;2023-03-01T11:03:11;6.10;57.40
49413;DHT22;35493;50.276;9.372;2023-03-01T11:05:51;6.10;57.00
49413;DHT22;35493;50.276;9.372;2023-03-01T11:08:36;6.30;56.20
49413;DHT22;35493;50.276;9.372;2023-03-01T11:11:18;6.40;56.00
49413;DHT22;35493;50.276;9.372;2023-03-01T11:13:53;6.40;56.10
49413;DHT22;35493;50.276;9.372;2023-03-01T11:16:34;6.40;56.40
49413;DHT22;35493;50.276;9.372;2023-03-01T11:19:18;6.50;55.90
49413;DHT22;35493;50.276;9.372;2023-03-01T11:21:55;6.50;55.30
49413;DHT22;35493;50.276;9.372;2023-03-01T11:24:30;6.60;56.00
49413;DHT22;35493;50.276;9.372;2023-03-01T11:27:03;6.60;55.40
49413;DHT22;35493;50.276;9.372;2023-03-01T11:29:35;6.70;55.60
49413;DHT22;35493;50.276;9.372;2023-03-01T11:32:06;6.70;55.50
49413;DHT22;35493;50.276;9.372;2023-03-01T11:34:39;6.70;54.60
49413;DHT22;35493;50.276;9.372;2023-03-01T11:37:21;6.80;53.50
49413;DHT22;35493;50.276;9.372;2023-03-01T11:39:55;6.80;54.40
49413;DHT22;35493;50.276;9.372;2023-03-01T11:42:35;6.80;55.10
49413;DHT22;35493;50.276;9.372;2023-03-01T11:45:09;6.90;54.50
49413;DHT22;35493;50.276;9.372;2023-03-01T11:47:59;6.90;54.20
49413;DHT22;35493;50.276;9.372;2023-03-01T11:50:34;6.90;53.60
49413;DHT22;35493;50.276;9.372;2023-03-01T11:53:21;6.90;53.40
49413;DHT22;35493;50.276;9.372;2023-03-01T11:55:55;7.00;53.40
49413;DHT22;35493;50.276;9.372;2023-03-01T11:58:43;6.90;54.40
49413;DHT22;35493;50.276;9.372;2023-03-01T12:01:27;7.00;54.10
49413;DHT22;35493;50.276;9.372;2023-03-01T12:04:24;6.90;54.10
49413;DHT22;35493;50.276;9.372;2023-03-01T12:06:57;6.90;53.40
49413;DHT22;35493;50.276;9.372;2023-03-01T12:09:49;6.90;52.90
49413;DHT22;35493;50.276;9.372;2023-03-01T12:12:27;6.90;52.60
49413;DHT22;35493;50.276;9.372;2023-03-01T12:18:03;6.80;52.90
49413;DHT22;35493;50.276;9.372;2023-03-01T12:20:38;6.90;52.90
49413;DHT22;35493;50.276;9.372;2023-03-01T12:23:25;6.90;53.10
49413;DHT22;35493;50.276;9.372;2023-03-01T12:26:06;6.90;53.50
49413;DHT22;35493;50.276;9.372;2023-03-01T12:28:52;6.80;52.60
49413;DHT22;35493;50.276;9.372;2023-03-01T12:31:48;6.80;52.80
49413;DHT22;35493;50.276;9.372;2023-03-01T12:34:27;6.90;53.70
49413;DHT22;35493;50.276;9.372;2023-03-01T12:37:14;6.90;53.20
49413;DHT22;35493;50.276;9.372;2023-03-01T12:39:53;6.90;53.30
49413;DHT22;35493;50.276;9.372;2023-03-01T12:42:30;6.90;53.20
49413;DHT22;35493;50.276;9.372;2023-03-01T12:45:14;7.00;53.30
49413;DHT22;35493;50.276;9.372;2023-03-01T12:47:55;6.90;52.90
49413;DHT22;35493;50.276;9.372;2023-03-01T12:50:32;7.00;53.70
49413;DHT22;35493;50.276;9.372;2023-03-01T12:53:02;7.00;53.20
49413;DHT22;35493;50.276;9.372;2023-03-01T12:55:32;7.00;53.30
49413;DHT22;35493;50.276;9.372;2023-03-01T12:58:01;7.10;53.00
49413;DHT22;35493;50.276;9.372;2023-03-01T13:00:35;7.00;52.70
49413;DHT22;35493;50.276;9.372;2023-03-01T13:03:15;7.00;53.50
49413;DHT22;35493;50.276;9.372;2023-03-01T13:05:59;7.10;52.60
49413;DHT22;35493;50.276;9.372;2023-03-01T13:08:33;7.00;53.40
49413;DHT22;35493;50.276;9.372;2023-03-01T13:11:04;7.00;54.00
49413;DHT22;35493;50.276;9.372;2023-03-01T13:13:32;7.00;53.70
49413;DHT22;35493;50.276;9.372;2023-03-01T13:16:20;7.00;53.70
49413;DHT22;35493;50.276;9.372;2023-03-01T13:18:49;7.00;53.90
49413;DHT22;35493;50.276;9.372;2023-03-01T13:21:37;7.00;53.40
49413;DHT22;35493;50.276;9.372;2023-03-01T13:24:04;7.00;53.30
49413;DHT22;35493;50.276;9.372;2023-03-01T13:27:22;6.90;54.10
49413;DHT22;35493;50.276;9.372;2023-03-01T13:29:56;7.00;54.20
49413;DHT22;35493;50.276;9.372;2023-03-01T13:32:26;7.00;53.40
49413;DHT22;35493;50.276;9.372;2023-03-01T13:34:58;7.00;53.50
49413;DHT22;35493;50.276;9.372;2023-03-01T13:37:27;7.00;53.60
49413;DHT22;35493;50.276;9.372;2023-03-01T13:40:00;7.00;53.60
49413;DHT22;35493;50.276;9.372;2023-03-01T13:42:34;7.00;54.20
49413;DHT22;35493;50.276;9.372;2023-03-01T13:45:04;7.00;53.60
49413;DHT22;35493;50.276;9.372;2023-03-01T13:47:38;7.10;53.40
49413;DHT22;35493;50.276;9.372;2023-03-01T13:50:16;7.10;53.30
49413;DHT22;35493;50.276;9.372;2023-03-01T13:52:48;7.00;53.30
49413;DHT22;35493;50.276;9.372;2023-03-01T13:55:19;7.10;52.90
49413;DHT22;35493;50.276;9.372;2023-03-01T13:57:49;7.10;53.40
49413;DHT22;35493;50.276;9.372;2023-03-01T14:00:31;7.10;53.80
49413;DHT22;35493;50.276;9.372;2023-03-01T14:03:04;7.00;53.90
49413;DHT22;35493;50.276;9.372;2023-03-01T14:05:33;7.00;53.60
49413;DHT22;35493;50.276;9.372;2023-03-01T14:08:01;7.00;53.90
49413;DHT22;35493;50.276;9.372;2023-03-01T14:10:35;7.00;54.10
49413;DHT22;35493;50.276;9.372;2023-03-01T14:13:14;7.00;53.00
49413;DHT22;35493;50.276;9.372;2023-03-01T14:16:02;7.00;52.80
49413;DHT22;35493;50.276;9.372;2023-03-01T14:18:35;7.00;52.40
49413;DHT22;35493;50.276;9.372;2023-03-01T14:21:08;7.00;53.20
49413;DHT22;35493;50.276;9.372;2023-03-01T14:23:38;7.10;53.30
49413;DHT22;35493;50.276;9.372;2023-03-01T14:26:08;7.00;53.00
49413;DHT22;35493;50.276;9.372;2023-03-01T14:28:38;7.00;52.70
49413;DHT22;35493;50.276;9.372;2023-03-01T14:31:31;7.00;52.70
49413;DHT22;35493;50.276;9.372;2023-03-01T14:33:59;7.00;52.70
49413;DHT22;35493;50.276;9.372;2023-03-01T14:36:30;7.00;52.70
49413;DHT22;35493;50.276;9.372;2023-03-01T14:38:57;7.00;53.20
49413;DHT22;35493;50.276;9.372;2023-03-01T14:41:32;7.00;52.80
49413;DHT22;35493;50.276;9.372;2023-03-01T14:44:01;7.00;53.20
49413;DHT22;35493;50.276;9.372;2023-03-01T14:46:31;7.00;53.00
49413;DHT22;35493;50.276;9.372;2023-03-01T14:49:02;6.90;53.50
49413;DHT22;35493;50.276;9.372;2023-03-01T14:51:35;6.90;53.30
49413;DHT22;35493;50.276;9.372;2023-03-01T14:54:03;6.90;53.40
49413;DHT22;35493;50.276;9.372;2023-03-01T14:56:43;6.90;53.50
49413;DHT22;35493;50.276;9.372;2023-03-01T14:59:11;6.90;53.60
49413;DHT22;35493;50.276;9.372;2023-03-01T15:01:40;6.90;53.80
49413;DHT22;35493;50.276;9.372;2023-03-01T15:04:11;6.80;53.50
49413;DHT22;35493;50.276;9.372;2023-03-01T15:06:40;6.80;53.30
49413;DHT22;35493;50.276;9.372;2023-03-01T15:09:13;6.80;53.30
49413;DHT22;35493;50.276;9.372;2023-03-01T15:11:41;6.80;53.70
49413;DHT22;35493;50.276;9.372;2023-03-01T15:14:29;6.80;54.10
49413;DHT22;35493;50.276;9.372;2023-03-01T15:17:17;6.80;53.50
49413;DHT22;35493;50.276;9.372;2023-03-01T15:19:46;6.70;53.80
49413;DHT22;35493;50.276;9.372;2023-03-01T15:22:16;6.70;54.20
49413;DHT22;35493;50.276;9.372;2023-03-01T15:24:47;6.70;54.70
49413;DHT22;35493;50.276;9.372;2023-03-01T15:27:17;6.70;55.10
49413;DHT22;35493;50.276;9.372;2023-03-01T15:29:49;6.60;54.60
49413;DHT22;35493;50.276;9.372;2023-03-01T15:32:28;6.60;55.00
49413;DHT22;35493;50.276;9.372;2023-03-01T15:34:56;6.60;54.80
49413;DHT22;35493;50.276;9.372;2023-03-01T15:37:44;6.60;55.30
49413;DHT22;35493;50.276;9.372;2023-03-01T15:40:20;6.50;55.40
49413;DHT22;35493;50.276;9.372;2023-03-01T15:42:50;6.50;55.80
49413;DHT22;35493;50.276;9.372;2023-03-01T15:45:23;6.40;55.60
49413;DHT22;35493;50.276;9.372;2023-03-01T15:47:53;6.40;55.90
49413;DHT22;35493;50.276;9.372;2023-03-01T15:50:25;6.40;56.40
49413;DHT22;35493;50.276;9.372;2023-03-01T15:52:54;6.40;56.20
49413;DHT22;35493;50.276;9.372;2023-03-01T15:55:23;6.40;56.40
49413;DHT22;35493;50.276;9.372;2023-03-01T15:57:57;6.40;56.00
49413;DHT22;35493;50.276;9.372;2023-03-01T16:00:27;6.30;55.70
49413;DHT22;35493;50.276;9.372;2023-03-01T16:02:54;6.30;56.10
49413;DHT22;35493;50.276;9.372;2023-03-01T16:05:23;6.30;55.60
49413;DHT22;35493;50.276;9.372;2023-03-01T16:07:51;6.30;55.50